Time;durP1;ratioP1;P1;durP2;ratioP2;P2;SDS_P1;SDS_P2;PMS_P1;PMS_P2;Temp;Humidity;BMP_temperature;BMP_pressure;BME280_temperature;BME280_humidity;BME280_pressure;Samples;Min_cycle;Max_cycle;Signal;HPM_P1;HPM_P2
2023/07/12 00:00:41;;;;;;;;;;;;;;;;;;5053532;28;19926;-77
2023/07/12 00:03:07;;;;;;;;;;;;;;;;;;5069857;28;20280;-76
2023/07/12 00:05:33;;;;;;;;;;;;;;;;;;5053996;28;19924;-74
2023/07/12 00:07:59;;;;;;;;;;;;;;;;;;5070502;28;19928;-74
2023/07/12 00:10:25;;;;;;;;;;;;;;;;;;5053897;28;20266;-74
2023/07/12 00:12:51;;;;;;;;;;;;;;;;;;5053197;28;19982;-74
2023/07/12 00:15:17;;;;;;;;;;;;;;;;;;5053849;28;19920;-74
2023/07/12 00:17:43;;;;;;;;;;;;;;;;;;5053222;28;19931;-78
2023/07/12 00:20:09;;;;;;;;;;;;;;;;;;5053371;28;19957;-76
2023/07/12 00:22:35;;;;;;;;;;;;;;;;;;5052327;28;19920;-74
2023/07/12 00:25:01;;;;;;;;;;;;;;;;;;5053455;28;19921;-74
2023/07/12 00:27:27;;;;;;;;;;;;;;;;;;5069813;28;19967;-74
2023/07/12 00:29:53;;;;;;;;;;;;;;;;;;5069730;28;20006;-74
2023/07/12 00:32:19;;;;;;;;;;;;;;;;;;5053062;28;19959;-74
2023/07/12 00:34:45;;;;;;;;;;;;;;;;;;5052517;28;19921;-78
2023/07/12 00:37:11;;;;;;;;;;;;;;;;;;5062065;28;19924;-75
2023/07/12 00:39:37;;;;;;;;;;;;;;;;;;5033025;28;19928;-76
2023/07/12 00:42:03;;;;;;;;;;;;;;;;;;5032753;28;19928;-72
2023/07/12 00:44:29;;;;;;;;;;;;;;;;;;5033534;28;20629;-72
2023/07/12 00:46:55;;;;;;;;;;;;;;;;;;5060676;28;20028;-72
2023/07/12 00:49:21;;;;;;;;;;;;;;;;;;5065044;28;19950;-72
2023/07/12 00:51:47;;;;;;;;;;;;;;;;;;5049902;28;19928;-77
2023/07/12 00:54:13;;;;;;;;;;;;;;;;;;5060006;28;19924;-72
2023/07/12 00:56:39;;;;;;;;;;;;;;;;;;5069575;28;20652;-71
2023/07/12 00:59:05;;;;;;;;;;;;;;;;;;5069378;28;20313;-73
2023/07/12 01:01:31;;;;;;;;;;;;;;;;;;5053576;28;19985;-72
2023/07/12 01:03:57;;;;;;;;;;;;;;;;;;5052239;28;19920;-73
2023/07/12 01:06:23;;;;;;;;;;;;;;;;;;5070305;28;19959;-72
2023/07/12 01:08:49;;;;;;;;;;;;;;;;;;5067029;28;20692;-77
2023/07/12 01:11:15;;;;;;;;;;;;;;;;;;5070636;28;19921;-72
2023/07/12 01:13:41;;;;;;;;;;;;;;;;;;5060551;28;19968;-73
2023/07/12 01:16:07;;;;;;;;;;;;;;;;;;5049122;28;20365;-73
2023/07/12 01:18:33;;;;;;;;;;;;;;;;;;5048756;28;19928;-72
2023/07/12 01:20:59;;;;;;;;;;;;;;;;;;5048978;28;19971;-73
2023/07/12 01:23:26;;;;;;;;;;;;;;;;;;5049173;28;19925;-72
2023/07/12 01:25:52;;;;;;;;;;;;;;;;;;5051685;28;19928;-74
2023/07/12 01:28:18;;;;;;;;;;;;;;;;;;5069523;28;19921;-73
2023/07/12 01:30:44;;;;;;;;;;;;;;;;;;5069864;28;19928;-72
2023/07/12 01:33:10;;;;;;;;;;;;;;;;;;5067727;28;19924;-72
2023/07/12 01:35:36;;;;;;;;;;;;;;;;;;5068803;28;19928;-72
2023/07/12 01:38:02;;;;;;;;;;;;;;;;;;5068212;28;19986;-73
2023/07/12 01:40:28;;;;;;;;;;;;;;;;;;5069120;28;19967;-72
2023/07/12 01:42:54;;;;;;;;;;;;;;;;;;5069330;28;19928;-77
2023/07/12 01:45:20;;;;;;;;;;;;;;;;;;5069779;28;19924;-72
2023/07/12 01:47:46;;;;;;;;;;;;;;;;;;5069041;28;19935;-72
2023/07/12 01:50:12;;;;;;;;;;;;;;;;;;5069047;28;19924;-73
2023/07/12 01:52:37;;;;;;;;;;;;;;;;;;5057952;28;19943;-73
2023/07/12 01:55:03;;;;;;;;;;;;;;;;;;5051438;28;19928;-73
2023/07/12 01:57:29;;;;;;;;;;;;;;;;;;5069179;28;20372;-75
2023/07/12 01:59:55;;;;;;;;;;;;;;;;;;5068851;28;20023;-77
2023/07/12 02:02:21;;;;;;;;;;;;;;;;;;5066232;28;19939;-72
2023/07/12 02:04:48;;;;;;;;;;;;;;;;;;5048969;28;19974;-72
2023/07/12 02:07:14;;;;;;;;;;;;;;;;;;5058443;28;19928;-73
2023/07/12 02:09:40;;;;;;;;;;;;;;;;;;5061282;28;19921;-73
2023/07/12 02:12:06;;;;;;;;;;;;;;;;;;5052190;28;19924;-73
2023/07/12 02:14:32;;;;;;;;;;;;;;;;;;5053023;28;19928;-72
2023/07/12 02:16:58;;;;;;;;;;;;;;;;;;5054495;28;19920;-74
2023/07/12 02:19:23;;;;;;;;;;;;;;;;;;5071254;28;19924;-73
2023/07/12 02:21:49;;;;;;;;;;;;;;;;;;5056383;28;19920;-73
2023/07/12 02:24:15;;;;;;;;;;;;;;;;;;5055104;28;19920;-73
2023/07/12 02:26:41;;;;;;;;;;;;;;;;;;5072337;28;19939;-73
2023/07/12 02:29:07;;;;;;;;;;;;;;;;;;5056585;28;20630;-73
2023/07/12 02:31:33;;;;;;;;;;;;;;;;;;5052907;28;19928;-72
2023/07/12 02:33:59;;;;;;;;;;;;;;;;;;5052587;28;19921;-73
2023/07/12 02:36:25;;;;;;;;;;;;;;;;;;5052774;28;19924;-72
2023/07/12 02:38:51;;;;;;;;;;;;;;;;;;5053383;28;19925;-73
2023/07/12 02:41:17;;;;;;;;;;;;;;;;;;5051908;28;19990;-73
2023/07/12 02:43:43;;;;;;;;;;;;;;;;;;5052259;28;19947;-73
2023/07/12 02:46:09;;;;;;;;;;;;;;;;;;5052233;28;20407;-72
2023/07/12 02:48:35;;;;;;;;;;;;;;;;;;5063445;28;20327;-73
2023/07/12 02:51:01;;;;;;;;;;;;;;;;;;5070042;28;19928;-72
2023/07/12 02:53:28;;;;;;;;;;;;;;;;;;5052512;28;20357;-72
2023/07/12 02:55:54;;;;;;;;;;;;;;;;;;5056607;28;19927;-73
2023/07/12 02:58:20;;;;;;;;;;;;;;;;;;5071721;28;20724;-73
2023/07/12 03:00:46;;;;;;;;;;;;;;;;;;5072401;28;20303;-73
2023/07/12 03:03:12;;;;;;;;;;;;;;;;;;5054262;28;19920;-73
2023/07/12 03:05:38;;;;;;;;;;;;;;;;;;5072148;28;19920;-73
2023/07/12 03:08:04;;;;;;;;;;;;;;;;;;5054848;28;20014;-72
2023/07/12 03:10:30;;;;;;;;;;;;;;;;;;5071253;28;20329;-73
2023/07/12 03:12:56;;;;;;;;;;;;;;;;;;5054826;28;19925;-73
2023/07/12 03:15:22;;;;;;;;;;;;;;;;;;5071402;28;19924;-73
2023/07/12 03:17:48;;;;;;;;;;;;;;;;;;5071197;28;19982;-73
2023/07/12 03:20:13;;;;;;;;;;;;;;;;;;5069412;28;19994;-73
2023/07/12 03:22:39;;;;;;;;;;;;;;;;;;5070193;28;19966;-73
2023/07/12 03:25:05;;;;;;;;;;;;;;;;;;5069784;28;19921;-73
2023/07/12 03:27:31;;;;;;;;;;;;;;;;;;5072319;28;19920;-73
2023/07/12 03:29:57;;;;;;;;;;;;;;;;;;5071473;28;20326;-73
2023/07/12 03:32:24;;;;;;;;;;;;;;;;;;5070869;28;19935;-73
2023/07/12 03:34:50;;;;;;;;;;;;;;;;;;5070953;28;19920;-72
2023/07/12 03:37:16;;;;;;;;;;;;;;;;;;5070961;28;19927;-73
2023/07/12 03:39:42;;;;;;;;;;;;;;;;;;5071331;28;20457;-73
2023/07/12 03:42:07;;;;;;;;;;;;;;;;;;5053722;28;20344;-73
2023/07/12 03:44:33;;;;;;;;;;;;;;;;;;5071262;28;19947;-73
2023/07/12 03:46:59;;;;;;;;;;;;;;;;;;5071319;28;19966;-73
2023/07/12 03:49:25;;;;;;;;;;;;;;;;;;5069826;28;19920;-73
2023/07/12 03:51:51;;;;;;;;;;;;;;;;;;5074689;28;19967;-73
2023/07/12 03:54:17;;;;;;;;;;;;;;;;;;5076032;28;19921;-73
2023/07/12 03:56:43;;;;;;;;;;;;;;;;;;5057591;28;19925;-73
2023/07/12 03:59:09;;;;;;;;;;;;;;;;;;5053848;28;20277;-73
2023/07/12 04:01:36;;;;;;;;;;;;;;;;;;5051211;28;19991;-72
2023/07/12 04:04:02;;;;;;;;;;;;;;;;;;5051230;28;19921;-72
2023/07/12 04:06:28;;;;;;;;;;;;;;;;;;5050288;28;19992;-73
2023/07/12 04:08:54;;;;;;;;;;;;;;;;;;5050953;28;19924;-72
2023/07/12 04:11:20;;;;;;;;;;;;;;;;;;5050018;28;19921;-72
2023/07/12 04:13:46;;;;;;;;;;;;;;;;;;5050611;28;19921;-73
2023/07/12 04:16:13;;;;;;;;;;;;;;;;;;5050364;28;20003;-72
2023/07/12 04:18:39;;;;;;;;;;;;;;;;;;5050153;28;19931;-75
2023/07/12 04:21:05;;;;;;;;;;;;;;;;;;5067522;28;19925;-77
2023/07/12 04:23:31;;;;;;;;;;;;;;;;;;5050167;28;20377;-72
2023/07/12 04:25:57;;;;;;;;;;;;;;;;;;5050250;28;19924;-73
2023/07/12 04:28:23;;;;;;;;;;;;;;;;;;5051490;28;19924;-72
2023/07/12 04:30:49;;;;;;;;;;;;;;;;;;5053588;28;20424;-72
2023/07/12 04:33:14;;;;;;;;;;;;;;;;;;5069105;28;19935;-72
2023/07/12 04:35:40;;;;;;;;;;;;;;;;;;5070652;28;19920;-73
2023/07/12 04:38:06;;;;;;;;;;;;;;;;;;5050195;28;19929;-76
2023/07/12 04:40:32;;;;;;;;;;;;;;;;;;5032768;28;19924;-72
2023/07/12 04:42:58;;;;;;;;;;;;;;;;;;5049873;28;19939;-72
2023/07/12 04:45:24;;;;;;;;;;;;;;;;;;5049095;28;19924;-73
2023/07/12 04:47:50;;;;;;;;;;;;;;;;;;5047549;28;20428;-72
2023/07/12 04:50:16;;;;;;;;;;;;;;;;;;5050820;28;19924;-73
2023/07/12 04:52:42;;;;;;;;;;;;;;;;;;5056258;28;20007;-73
2023/07/12 04:55:08;;;;;;;;;;;;;;;;;;5069494;28;19924;-77
2023/07/12 04:57:34;;;;;;;;;;;;;;;;;;5053063;28;19925;-72
2023/07/12 05:00:00;;;;;;;;;;;;;;;;;;5070091;28;19981;-73
2023/07/12 05:02:26;;;;;;;;;;;;;;;;;;5069749;28;19977;-72
2023/07/12 05:04:52;;;;;;;;;;;;;;;;;;5069164;28;20391;-73
2023/07/12 05:07:18;;;;;;;;;;;;;;;;;;5069744;28;20019;-72
2023/07/12 05:09:45;;;;;;;;;;;;;;;;;;5055657;28;20365;-73
2023/07/12 05:12:11;;;;;;;;;;;;;;;;;;5049060;28;19921;-73
2023/07/12 05:14:37;;;;;;;;;;;;;;;;;;5065838;28;19920;-74
2023/07/12 05:17:03;;;;;;;;;;;;;;;;;;5053169;28;19932;-73
2023/07/12 05:19:29;;;;;;;;;;;;;;;;;;5068664;28;20025;-73
2023/07/12 05:21:55;;;;;;;;;;;;;;;;;;5058100;28;19921;-74
2023/07/12 05:24:21;;;;;;;;;;;;;;;;;;5049070;28;19927;-73
2023/07/12 05:26:47;;;;;;;;;;;;;;;;;;5052066;28;19972;-73
2023/07/12 05:29:13;;;;;;;;;;;;;;;;;;5055731;28;19927;-72
2023/07/12 05:31:39;;;;;;;;;;;;;;;;;;5049789;28;19927;-72
2023/07/12 05:34:05;;;;;;;;;;;;;;;;;;5049281;28;20345;-73
2023/07/12 05:36:31;;;;;;;;;;;;;;;;;;5049381;28;20330;-73
2023/07/12 05:38:58;;;;;;;;;;;;;;;;;;5054154;28;20024;-73
2023/07/12 05:41:24;;;;;;;;;;;;;;;;;;5061554;28;20002;-73
2023/07/12 05:43:50;;;;;;;;;;;;;;;;;;5051882;28;19999;-72
2023/07/12 05:46:15;;;;;;;;;;;;;;;;;;5053730;28;19971;-73
2023/07/12 05:48:41;;;;;;;;;;;;;;;;;;5054004;28;19921;-73
2023/07/12 05:51:08;;;;;;;;;;;;;;;;;;5059544;28;20545;-73
2023/07/12 05:53:34;;;;;;;;;;;;;;;;;;5072997;28;19931;-72
2023/07/12 05:55:59;;;;;;;;;;;;;;;;;;5073038;28;19921;-73
2023/07/12 05:58:25;;;;;;;;;;;;;;;;;;5072359;28;20447;-72
2023/07/12 06:00:51;;;;;;;;;;;;;;;;;;5073542;28;19943;-72
2023/07/12 06:03:17;;;;;;;;;;;;;;;;;;5069069;28;19924;-73
2023/07/12 06:05:44;;;;;;;;;;;;;;;;;;5072908;28;19963;-74
2023/07/12 06:08:10;;;;;;;;;;;;;;;;;;5073148;28;19927;-72
2023/07/12 06:10:36;;;;;;;;;;;;;;;;;;5054045;28;19924;-72
2023/07/12 06:13:02;;;;;;;;;;;;;;;;;;5052571;28;19921;-73
2023/07/12 06:15:28;;;;;;;;;;;;;;;;;;5052771;28;19920;-74
2023/07/12 06:17:54;;;;;;;;;;;;;;;;;;5052250;28;19931;-73
2023/07/12 06:20:20;;;;;;;;;;;;;;;;;;5052497;28;19972;-73
2023/07/12 06:22:45;;;;;;;;;;;;;;;;;;5051861;28;19927;-72
2023/07/12 06:25:11;;;;;;;;;;;;;;;;;;5058297;28;19920;-74
2023/07/12 06:27:37;;;;;;;;;;;;;;;;;;5055585;28;19993;-72
2023/07/12 06:30:03;;;;;;;;;;;;;;;;;;5056117;28;20382;-72
2023/07/12 06:32:29;;;;;;;;;;;;;;;;;;5071626;28;19920;-72
2023/07/12 06:34:55;;;;;;;;;;;;;;;;;;5071843;28;19990;-72
2023/07/12 06:37:21;;;;;;;;;;;;;;;;;;5072151;28;19975;-73
2023/07/12 06:39:47;;;;;;;;;;;;;;;;;;5071979;28;20281;-73
2023/07/12 06:42:13;;;;;;;;;;;;;;;;;;5055669;28;19931;-74
2023/07/12 06:44:39;;;;;;;;;;;;;;;;;;5055068;28;19927;-74
2023/07/12 06:47:05;;;;;;;;;;;;;;;;;;5072633;28;19921;-75
2023/07/12 06:49:32;;;;;;;;;;;;;;;;;;5070873;28;20010;-74
2023/07/12 06:51:58;;;;;;;;;;;;;;;;;;5052832;28;19940;-74
2023/07/12 06:54:24;;;;;;;;;;;;;;;;;;5051730;28;19993;-74
2023/07/12 06:56:50;;;;;;;;;;;;;;;;;;5052011;28;19931;-74
2023/07/12 06:59:16;;;;;;;;;;;;;;;;;;5060454;28;19924;-76
2023/07/12 07:01:42;;;;;;;;;;;;;;;;;;5052292;28;19947;-73
2023/07/12 07:04:08;;;;;;;;;;;;;;;;;;5051524;28;19977;-74
2023/07/12 07:06:34;;;;;;;;;;;;;;;;;;5051633;28;19929;-73
2023/07/12 07:09:00;;;;;;;;;;;;;;;;;;5052340;28;19932;-74
2023/07/12 07:11:26;;;;;;;;;;;;;;;;;;5062207;28;20027;-74
2023/07/12 07:13:52;;;;;;;;;;;;;;;;;;5051750;28;19924;-74
2023/07/12 07:16:18;;;;;;;;;;;;;;;;;;5051854;28;19925;-75
2023/07/12 07:18:44;;;;;;;;;;;;;;;;;;5051017;28;19928;-74
2023/07/12 07:21:10;;;;;;;;;;;;;;;;;;5051888;28;19925;-73
2023/07/12 07:23:36;;;;;;;;;;;;;;;;;;5050714;28;20466;-74
2023/07/12 07:26:02;;;;;;;;;;;;;;;;;;5056800;28;20338;-74
2023/07/12 07:28:28;;;;;;;;;;;;;;;;;;5070847;28;19925;-74
2023/07/12 07:30:55;;;;;;;;;;;;;;;;;;5051416;28;19931;-74
2023/07/12 07:33:21;;;;;;;;;;;;;;;;;;5048736;28;19924;-77
2023/07/12 07:35:47;;;;;;;;;;;;;;;;;;5071577;28;19970;-73
2023/07/12 07:38:13;;;;;;;;;;;;;;;;;;5054144;28;19960;-73
2023/07/12 07:40:39;;;;;;;;;;;;;;;;;;5050682;28;20019;-72
2023/07/12 07:43:05;;;;;;;;;;;;;;;;;;5051370;28;20006;-75
2023/07/12 07:45:31;;;;;;;;;;;;;;;;;;5051035;28;19927;-73
2023/07/12 07:47:57;;;;;;;;;;;;;;;;;;5050318;28;19925;-76
2023/07/12 07:50:22;;;;;;;;;;;;;;;;;;5067168;28;20407;-77
2023/07/12 07:52:49;;;;;;;;;;;;;;;;;;5056587;28;20365;-76
2023/07/12 07:55:15;;;;;;;;;;;;;;;;;;5071063;28;20398;-76
2023/07/12 07:57:41;;;;;;;;;;;;;;;;;;5072467;28;20407;-76
2023/07/12 08:00:10;;;;;;;;;;;;;;;;;;5064733;28;19920;-75
2023/07/12 08:02:36;;;;;;;;;;;;;;;;;;5089825;28;20307;-78
2023/07/12 08:05:02;;;;;;;;;;;;;;;;;;5072384;28;19923;-77
2023/07/12 08:07:28;;;;;;;;;;;;;;;;;;5089696;28;20357;-76
2023/07/12 08:09:54;;;;;;;;;;;;;;;;;;5072807;28;19924;-75
2023/07/12 08:12:20;;;;;;;;;;;;;;;;;;5089110;28;19967;-76
2023/07/12 08:14:46;;;;;;;;;;;;;;;;;;5082539;28;19940;-75
2023/07/12 08:17:12;;;;;;;;;;;;;;;;;;5078464;28;20042;-75
2023/07/12 08:19:38;;;;;;;;;;;;;;;;;;5069539;28;19920;-75
2023/07/12 08:22:04;;;;;;;;;;;;;;;;;;5072935;28;19924;-77
2023/07/12 08:24:30;;;;;;;;;;;;;;;;;;5071775;28;19956;-78
2023/07/12 08:26:56;;;;;;;;;;;;;;;;;;5070073;28;19920;-73
2023/07/12 08:29:22;;;;;;;;;;;;;;;;;;5075547;28;20280;-75
2023/07/12 08:31:48;;;;;;;;;;;;;;;;;;5088947;28;19994;-76
2023/07/12 08:34:14;;;;;;;;;;;;;;;;;;5081288;28;19928;-77
2023/07/12 08:36:40;;;;;;;;;;;;;;;;;;5079217;28;20042;-76
2023/07/12 08:39:06;;;;;;;;;;;;;;;;;;5069663;28;20288;-77
2023/07/12 08:41:32;;;;;;;;;;;;;;;;;;5059507;28;19927;-77
2023/07/12 08:43:58;;;;;;;;;;;;;;;;;;5088901;28;19924;-77
2023/07/12 08:46:23;;;;;;;;;;;;;;;;;;5089188;28;19930;-77
2023/07/12 08:48:51;;;;;;;;;;;;;;;;;;5088154;28;20379;-74
2023/07/12 08:51:17;;;;;;;;;;;;;;;;;;5089924;28;19920;-74
2023/07/12 08:53:43;;;;;;;;;;;;;;;;;;5089490;28;20330;-74
2023/07/12 08:56:09;;;;;;;;;;;;;;;;;;5089162;28;19946;-77
2023/07/12 08:58:34;;;;;;;;;;;;;;;;;;5078310;28;19920;-76
2023/07/12 09:01:00;;;;;;;;;;;;;;;;;;5090000;28;20415;-76
2023/07/12 09:03:26;;;;;;;;;;;;;;;;;;5062913;28;20369;-76
2023/07/12 09:05:52;;;;;;;;;;;;;;;;;;5061840;28;20314;-76
2023/07/12 09:08:18;;;;;;;;;;;;;;;;;;5089416;28;19969;-76
2023/07/12 09:10:44;;;;;;;;;;;;;;;;;;5072288;28;19942;-76
2023/07/12 09:13:10;;;;;;;;;;;;;;;;;;5075564;28;19920;-76
2023/07/12 09:15:36;;;;;;;;;;;;;;;;;;5089523;28;19927;-76
2023/07/12 09:18:02;;;;;;;;;;;;;;;;;;5091377;28;19919;-78
2023/07/12 09:20:28;;;;;;;;;;;;;;;;;;5094407;28;20269;-78
2023/07/12 09:22:54;;;;;;;;;;;;;;;;;;5064117;28;19924;-76
2023/07/12 09:25:20;;;;;;;;;;;;;;;;;;5083742;28;19920;-76
2023/07/12 09:27:47;;;;;;;;;;;;;;;;;;5086786;28;20464;-76
2023/07/12 09:30:13;;;;;;;;;;;;;;;;;;5083624;28;19923;-76
2023/07/12 09:32:39;;;;;;;;;;;;;;;;;;5090322;28;19931;-74
2023/07/12 09:35:05;;;;;;;;;;;;;;;;;;5085262;28;19932;-75
2023/07/12 09:37:31;;;;;;;;;;;;;;;;;;5068230;28;20007;-78
2023/07/12 09:39:57;;;;;;;;;;;;;;;;;;5056876;28;20011;-74
2023/07/12 09:42:23;;;;;;;;;;;;;;;;;;5073658;28;19924;-77
2023/07/12 09:44:49;;;;;;;;;;;;;;;;;;5092761;28;19930;-75
2023/07/12 09:47:15;;;;;;;;;;;;;;;;;;5093887;28;20018;-75
2023/07/12 09:49:41;;;;;;;;;;;;;;;;;;5086305;28;20416;-75
2023/07/12 09:52:07;;;;;;;;;;;;;;;;;;5093426;28;19923;-77
2023/07/12 09:54:33;;;;;;;;;;;;;;;;;;5076029;28;19959;-76
2023/07/12 09:56:59;;;;;;;;;;;;;;;;;;5087779;28;19955;-73
2023/07/12 09:59:25;;;;;;;;;;;;;;;;;;5065617;28;20364;-77
2023/07/12 10:01:51;;;;;;;;;;;;;;;;;;5091968;28;19971;-74
2023/07/12 10:04:17;;;;;;;;;;;;;;;;;;5091197;28;19949;-77
2023/07/12 10:06:43;;;;;;;;;;;;;;;;;;5075960;28;19924;-77
2023/07/12 10:09:09;;;;;;;;;;;;;;;;;;5088261;28;20006;-77
2023/07/12 10:11:34;;;;;;;;;;;;;;;;;;5071589;28;20341;-83
2023/07/12 10:14:01;;;;;;;;;;;;;;;;;;5072098;28;19927;-77
2023/07/12 10:16:27;;;;;;;;;;;;;;;;;;5077040;28;19926;-76
2023/07/12 10:18:53;;;;;;;;;;;;;;;;;;5082620;28;20003;-76
2023/07/12 10:21:18;;;;;;;;;;;;;;;;;;5092278;28;19920;-76
2023/07/12 10:23:44;;;;;;;;;;;;;;;;;;5078814;28;20533;-76
2023/07/12 10:26:10;;;;;;;;;;;;;;;;;;5072917;28;20311;-76
2023/07/12 10:28:36;;;;;;;;;;;;;;;;;;5056368;28;20004;-81
2023/07/12 10:31:02;;;;;;;;;;;;;;;;;;5064097;28;19925;-77
2023/07/12 10:33:28;;;;;;;;;;;;;;;;;;5060245;28;19925;-77
2023/07/12 10:35:54;;;;;;;;;;;;;;;;;;5078868;28;20015;-76
2023/07/12 10:38:25;;;;;;;;;;;;;;;;;;5055399;28;20293;-76
2023/07/12 10:40:51;;;;;;;;;;;;;;;;;;5054021;28;19994;-77
2023/07/12 10:43:17;;;;;;;;;;;;;;;;;;5065719;28;20391;-76
2023/07/12 10:45:43;;;;;;;;;;;;;;;;;;5059577;28;19921;-76
2023/07/12 10:48:09;;;;;;;;;;;;;;;;;;5077677;28;19920;-76
2023/07/12 10:50:35;;;;;;;;;;;;;;;;;;5064998;28;19920;-76
2023/07/12 10:53:02;;;;;;;;;;;;;;;;;;5053807;28;19920;-77
2023/07/12 10:55:28;;;;;;;;;;;;;;;;;;5083921;28;20007;-77
2023/07/12 10:57:54;;;;;;;;;;;;;;;;;;5064823;28;20094;-78
2023/07/12 11:00:20;;;;;;;;;;;;;;;;;;5083990;28;19924;-77
2023/07/12 11:02:46;;;;;;;;;;;;;;;;;;5069053;28;20016;-77
2023/07/12 11:05:12;;;;;;;;;;;;;;;;;;5066639;28;19920;-77
2023/07/12 11:07:38;;;;;;;;;;;;;;;;;;5086144;28;20759;-77
2023/07/12 11:10:04;;;;;;;;;;;;;;;;;;5071829;28;19932;-77
2023/07/12 11:12:30;;;;;;;;;;;;;;;;;;5088493;28;20039;-77
2023/07/12 11:14:56;;;;;;;;;;;;;;;;;;5074226;28;19931;-78
2023/07/12 11:17:22;;;;;;;;;;;;;;;;;;5075079;28;20336;-77
2023/07/12 11:19:53;;;;;;;;;;;;;;;;;;5058672;28;20324;-77
2023/07/12 11:22:20;;;;;;;;;;;;;;;;;;5056189;28;20317;-79
2023/07/12 11:24:46;;;;;;;;;;;;;;;;;;5060811;28;20015;-75
2023/07/12 11:27:12;;;;;;;;;;;;;;;;;;5069766;28;20010;-78
2023/07/12 11:29:39;;;;;;;;;;;;;;;;;;5070110;28;19924;-78
2023/07/12 11:32:07;;;;;;;;;;;;;;;;;;5088209;28;20443;-77
2023/07/12 11:34:39;;;;;;;;;;;;;;;;;;5089925;28;20400;-78
2023/07/12 11:37:11;;;;;;;;;;;;;;;;;;5050068;28;19973;-79
2023/07/12 11:39:37;;;;;;;;;;;;;;;;;;5088111;28;19924;-78
2023/07/12 11:42:08;;;;;;;;;;;;;;;;;;5066981;28;19926;-77
2023/07/12 11:44:34;;;;;;;;;;;;;;;;;;5064881;28;19929;-79
2023/07/12 11:47:00;;;;;;;;;;;;;;;;;;5073682;28;19923;-79
2023/07/12 11:49:26;;;;;;;;;;;;;;;;;;5089343;28;19924;-79
2023/07/12 11:51:52;;;;;;;;;;;;;;;;;;5072904;28;19943;-79
2023/07/12 11:54:18;;;;;;;;;;;;;;;;;;5090037;28;19920;-79
2023/07/12 11:56:44;;;;;;;;;;;;;;;;;;5090185;28;19971;-81
2023/07/12 11:59:10;;;;;;;;;;;;;;;;;;5089545;28;19926;-79
2023/07/12 12:01:36;;;;;;;;;;;;;;;;;;5073245;28;19919;-80
2023/07/12 12:04:02;;;;;;;;;;;;;;;;;;5088317;28;19990;-81
2023/07/12 12:06:28;;;;;;;;;;;;;;;;;;5060234;28;19920;-79
2023/07/12 12:08:54;;;;;;;;;;;;;;;;;;5072296;28;19973;-78
2023/07/12 12:11:21;;;;;;;;;;;;;;;;;;5089462;28;19938;-81
2023/07/12 12:13:47;;;;;;;;;;;;;;;;;;5089390;28;19946;-82
2023/07/12 12:16:13;;;;;;;;;;;;;;;;;;5085608;28;19924;-75
2023/07/12 12:18:38;;;;;;;;;;;;;;;;;;5079991;28;19924;-75
2023/07/12 12:21:04;;;;;;;;;;;;;;;;;;5089466;28;20060;-74
2023/07/12 12:23:32;;;;;;;;;;;;;;;;;;5090299;28;19924;-78
2023/07/12 12:26:01;;;;;;;;;;;;;;;;;;5082496;28;20293;-78
2023/07/12 12:28:27;;;;;;;;;;;;;;;;;;5066751;28;19920;-77
2023/07/12 12:30:53;;;;;;;;;;;;;;;;;;5053290;28;19955;-78
2023/07/12 12:33:19;;;;;;;;;;;;;;;;;;5052501;28;20036;-77
2023/07/12 12:35:46;;;;;;;;;;;;;;;;;;5069827;28;19920;-78
2023/07/12 12:38:12;;;;;;;;;;;;;;;;;;5049975;28;19927;-77
2023/07/12 12:40:38;;;;;;;;;;;;;;;;;;5052646;28;19932;-77
2023/07/12 12:43:05;;;;;;;;;;;;;;;;;;5053158;28;19932;-78
2023/07/12 12:45:31;;;;;;;;;;;;;;;;;;5070714;28;19931;-77
2023/07/12 12:47:57;;;;;;;;;;;;;;;;;;5052471;28;19924;-77
2023/07/12 12:50:23;;;;;;;;;;;;;;;;;;5070068;28;19924;-78
2023/07/12 12:52:49;;;;;;;;;;;;;;;;;;5050996;28;19920;-80
2023/07/12 12:55:15;;;;;;;;;;;;;;;;;;5049975;28;19924;-78
2023/07/12 12:57:41;;;;;;;;;;;;;;;;;;5055599;28;20400;-78
2023/07/12 13:00:08;;;;;;;;;;;;;;;;;;5069807;28;19931;-78
2023/07/12 13:02:35;;;;;;;;;;;;;;;;;;5053696;28;19928;-78
2023/07/12 13:05:01;;;;;;;;;;;;;;;;;;5081477;28;19926;-77
2023/07/12 13:07:27;;;;;;;;;;;;;;;;;;5052977;28;19921;-78
2023/07/12 13:09:53;;;;;;;;;;;;;;;;;;5054601;28;19920;-80
2023/07/12 13:12:19;;;;;;;;;;;;;;;;;;5052342;28;19924;-77
2023/07/12 13:14:45;;;;;;;;;;;;;;;;;;5067599;28;19971;-78
2023/07/12 13:17:11;;;;;;;;;;;;;;;;;;5049760;28;20180;-78
2023/07/12 13:19:37;;;;;;;;;;;;;;;;;;5049380;28;19928;-77
2023/07/12 13:22:02;;;;;;;;;;;;;;;;;;5049578;28;19943;-78
2023/07/12 13:24:28;;;;;;;;;;;;;;;;;;5049859;28;20015;-78
2023/07/12 13:26:54;;;;;;;;;;;;;;;;;;5048884;28;19924;-77
2023/07/12 13:29:20;;;;;;;;;;;;;;;;;;5049821;28;19921;-77
2023/07/12 13:31:46;;;;;;;;;;;;;;;;;;5052479;28;19984;-77
2023/07/12 13:34:12;;;;;;;;;;;;;;;;;;5051943;28;20058;-77
2023/07/12 13:36:39;;;;;;;;;;;;;;;;;;5050050;28;19970;-77
2023/07/12 13:39:05;;;;;;;;;;;;;;;;;;5049389;28;19925;-77
2023/07/12 13:41:32;;;;;;;;;;;;;;;;;;5041844;28;19947;-77
2023/07/12 13:43:58;;;;;;;;;;;;;;;;;;5049131;28;19932;-77
2023/07/12 13:46:24;;;;;;;;;;;;;;;;;;5050059;28;19932;-76
2023/07/12 13:48:50;;;;;;;;;;;;;;;;;;5049153;28;19925;-77
2023/07/12 13:51:16;;;;;;;;;;;;;;;;;;5048753;28;19923;-77
2023/07/12 13:53:42;;;;;;;;;;;;;;;;;;5051750;28;19924;-77
2023/07/12 13:56:08;;;;;;;;;;;;;;;;;;5043746;28;19927;-78
2023/07/12 13:58:34;;;;;;;;;;;;;;;;;;5048780;28;19974;-77
2023/07/12 14:01:00;;;;;;;;;;;;;;;;;;5072284;28;20360;-78
2023/07/12 14:03:26;;;;;;;;;;;;;;;;;;5060266;28;19920;-79
2023/07/12 14:05:54;;;;;;;;;;;;;;;;;;5078708;28;19973;-77
2023/07/12 14:08:20;;;;;;;;;;;;;;;;;;5092461;28;19995;-77
2023/07/12 14:10:46;;;;;;;;;;;;;;;;;;5092781;28;19923;-77
2023/07/12 14:13:12;;;;;;;;;;;;;;;;;;5074836;28;19931;-77
2023/07/12 14:15:38;;;;;;;;;;;;;;;;;;5063499;28;19958;-76
2023/07/12 14:18:04;;;;;;;;;;;;;;;;;;5068411;28;20030;-77
2023/07/12 14:20:29;;;;;;;;;;;;;;;;;;5068299;28;19935;-77
2023/07/12 14:22:55;;;;;;;;;;;;;;;;;;5092378;28;19924;-74
2023/07/12 14:25:21;;;;;;;;;;;;;;;;;;5091331;28;19924;-73
2023/07/12 14:27:47;;;;;;;;;;;;;;;;;;5079463;28;20329;-78
2023/07/12 14:30:13;;;;;;;;;;;;;;;;;;5091417;28;19923;-78
2023/07/12 14:32:39;;;;;;;;;;;;;;;;;;5081728;28;19924;-79
2023/07/12 14:35:05;;;;;;;;;;;;;;;;;;5058495;28;19938;-77
2023/07/12 14:37:31;;;;;;;;;;;;;;;;;;5092478;28;19924;-78
2023/07/12 14:39:57;;;;;;;;;;;;;;;;;;5061989;28;20288;-77
2023/07/12 14:42:23;;;;;;;;;;;;;;;;;;5065707;28;19932;-77
2023/07/12 14:44:49;;;;;;;;;;;;;;;;;;5081400;28;20025;-77
2023/07/12 14:47:15;;;;;;;;;;;;;;;;;;5075539;28;20010;-77
2023/07/12 14:49:41;;;;;;;;;;;;;;;;;;5086203;28;19927;-77
2023/07/12 14:52:07;;;;;;;;;;;;;;;;;;5072479;28;20047;-77
2023/07/12 14:54:33;;;;;;;;;;;;;;;;;;5092706;28;20020;-77
2023/07/12 14:57:00;;;;;;;;;;;;;;;;;;5092770;28;19924;-77
2023/07/12 14:59:26;;;;;;;;;;;;;;;;;;5092276;28;19924;-78
2023/07/12 15:01:52;;;;;;;;;;;;;;;;;;5054071;28;19950;-77
2023/07/12 15:04:19;;;;;;;;;;;;;;;;;;5057970;28;19920;-77
2023/07/12 15:06:45;;;;;;;;;;;;;;;;;;5075902;28;19920;-77
2023/07/12 15:09:11;;;;;;;;;;;;;;;;;;5092092;28;20272;-79
2023/07/12 15:11:38;;;;;;;;;;;;;;;;;;5087587;28;19920;-78
2023/07/12 15:14:08;;;;;;;;;;;;;;;;;;5074114;28;19930;-80
2023/07/12 15:16:35;;;;;;;;;;;;;;;;;;5074660;28;19924;-77
2023/07/12 15:19:01;;;;;;;;;;;;;;;;;;5091207;28;19949;-78
2023/07/12 15:21:26;;;;;;;;;;;;;;;;;;5074140;28;20004;-78
2023/07/12 15:23:53;;;;;;;;;;;;;;;;;;5091148;28;19927;-78
2023/07/12 15:26:19;;;;;;;;;;;;;;;;;;5073281;28;19920;-78
2023/07/12 15:28:46;;;;;;;;;;;;;;;;;;5091277;28;19969;-77
2023/07/12 15:31:12;;;;;;;;;;;;;;;;;;5069039;28;19927;-78
2023/07/12 15:33:38;;;;;;;;;;;;;;;;;;5084076;28;19924;-77
2023/07/12 15:36:04;;;;;;;;;;;;;;;;;;5084072;28;20001;-77
2023/07/12 15:38:30;;;;;;;;;;;;;;;;;;5082775;28;20258;-79
2023/07/12 15:40:56;;;;;;;;;;;;;;;;;;5073762;28;20656;-79
2023/07/12 15:43:22;;;;;;;;;;;;;;;;;;5073974;28;19973;-78
2023/07/12 15:45:49;;;;;;;;;;;;;;;;;;5063964;28;19931;-79
2023/07/12 15:48:14;;;;;;;;;;;;;;;;;;5067933;28;20378;-76
2023/07/12 15:50:40;;;;;;;;;;;;;;;;;;5067496;28;19985;-78
2023/07/12 15:53:06;;;;;;;;;;;;;;;;;;5066092;28;19924;-81
2023/07/12 15:55:33;;;;;;;;;;;;;;;;;;5080727;28;19931;-75
2023/07/12 15:57:59;;;;;;;;;;;;;;;;;;5074300;28;19947;-78
2023/07/12 16:00:25;;;;;;;;;;;;;;;;;;5073469;28;20376;-79
2023/07/12 16:02:51;;;;;;;;;;;;;;;;;;5073361;28;19978;-81
2023/07/12 16:05:18;;;;;;;;;;;;;;;;;;5090519;28;19920;-80
2023/07/12 16:07:44;;;;;;;;;;;;;;;;;;5069168;28;20007;-80
2023/07/12 16:10:09;;;;;;;;;;;;;;;;;;5070003;28;20065;-80
2023/07/12 16:12:35;;;;;;;;;;;;;;;;;;5090199;28;20023;-80
2023/07/12 16:15:01;;;;;;;;;;;;;;;;;;5083784;28;19927;-80
2023/07/12 16:17:28;;;;;;;;;;;;;;;;;;5083921;28;19920;-78
2023/07/12 16:19:55;;;;;;;;;;;;;;;;;;5082935;28;19920;-81
2023/07/12 16:22:24;;;;;;;;;;;;;;;;;;5067681;28;19924;-79
2023/07/12 16:24:50;;;;;;;;;;;;;;;;;;5073002;28;20359;-81
2023/07/12 16:27:16;;;;;;;;;;;;;;;;;;5056893;28;20011;-81
2023/07/12 16:29:42;;;;;;;;;;;;;;;;;;5065770;28;19923;-81
2023/07/12 16:32:08;;;;;;;;;;;;;;;;;;5081725;28;20361;-82
2023/07/12 16:34:34;;;;;;;;;;;;;;;;;;5081481;28;19927;-81
2023/07/12 16:37:00;;;;;;;;;;;;;;;;;;5075979;28;20364;-81